Terminal Aerodrome Forecast
Issued by NWS

Home | Current Version | Previous Version | Text Only | Print | Product List | Glossary On
Versions: 1 2 3 4 5 6 7 8 9 10 11 12 13
546
FTAK31 PAJN 260540
TAFASI
TAF
PASI 260540Z 2606/2706 10006KT P6SM VCSH SCT050 BKN080
     FM260900 10007KT P6SM SCT040 OVC110
     FM261600 09011KT P6SM OVC060
     FM262100 08009KT P6SM VCSH OVC060=

USA.gov is the U.S. government's official web portal to all federal, state and local government web resources and services.